Aeroporto :
LOGIN :

Iscrizione | Disclaimer

   EN    FR    IT 

 










Sommario :    VFR   VFR Marginale   IFR   IFR Intensivo   IFR Molto Intensivo
Visibilità : 
Base nubi : 
>= 8 km
>= 3000ft
5 / 8 km
1000 / 3000 ft
1500m / 5 km
500 / 1000 ft
800 / 1500m
200 / 500 ft
< 800m
< 200 ft
Simboli :   Temporali  Nebbia  Neve Forte  Precipitazioni Forti  Vento > 20 kt
SIGMETs :   Varie  Temporali  Ghiacco  Turbolenza  Onda orograficha  Ceneri Vulcaniche






- Altitudine del aeroporto : 56 ft
- Codice IATA : ILY


EGPI - Islay

ULTIMO METAR :
  • 090220Z AUTO 09014KT 050V120 9999 NCD 14/11 Q1023

METARs OBSOLETI :
  • 090150Z AUTO 09013KT 060V120 9999 NCD 14/11 Q1023
  • 090120Z AUTO 10008KT 050V140 9999 NCD 14/12 Q1023
  • 090050Z AUTO 11005KT 060V160 9999 NCD 13/12 Q1024
  • 090020Z AUTO VRB03KT 9999 NCD 12/11 Q1024
  • 082350Z AUTO VRB02KT 9999 NCD 11/11 Q1024

TAF TAF EGPI
Valido dal 09 a 03 ore il 09 a 12 ore UTC


090158Z 0903/0912 VRB03KT CAVOK
BECMG 0903/0905 08012KT



MetMap, La meteo Aeronautica in un colpo d'occhio ! - Copyright ORBIFLY Dicembre 2007 - Disclaimer

ORBIFLY MET'MAP TEAM :

Programmazione e sviluppo : Alexandra Zaïnal
Concezione : Baudouin d'Aumeries
Aiuto per la programmazione : Marc-Olivier Méhu
Supporto tecnico e logistico : Manuel Goepfert
Aiuto per la traduzione : Arnaldo La Scala

Contatto : metmap@orbifly.com




FONTI E CREDITI :

   NOAA